sensor_id;sensor_type;location;lat;lon;timestamp;P1;durP1;ratioP1;P2;durP2;ratioP2
38944;SDS011;24732;49.088;8.286;2022-08-03T00:01:08;4.05;;;3.75;;
38944;SDS011;24732;49.088;8.286;2022-08-03T00:03:54;4.00;;;3.70;;
38944;SDS011;24732;49.088;8.286;2022-08-03T00:06:41;3.63;;;3.33;;
38944;SDS011;24732;49.088;8.286;2022-08-03T00:09:27;4.60;;;3.80;;
38944;SDS011;24732;49.088;8.286;2022-08-03T00:12:15;3.80;;;3.50;;
38944;SDS011;24732;49.088;8.286;2022-08-03T00:15:01;3.85;;;3.55;;
38944;SDS011;24732;49.088;8.286;2022-08-03T00:17:48;3.93;;;3.63;;
38944;SDS011;24732;49.088;8.286;2022-08-03T00:20:34;3.95;;;3.55;;
38944;SDS011;24732;49.088;8.286;2022-08-03T00:23:21;4.20;;;3.80;;
38944;SDS011;24732;49.088;8.286;2022-08-03T00:26:07;4.50;;;4.10;;
38944;SDS011;24732;49.088;8.286;2022-08-03T00:28:53;4.78;;;4.10;;
38944;SDS011;24732;49.088;8.286;2022-08-03T00:31:46;4.30;;;3.90;;
38944;SDS011;24732;49.088;8.286;2022-08-03T00:34:35;4.15;;;3.75;;
38944;SDS011;24732;49.088;8.286;2022-08-03T00:37:22;4.30;;;3.90;;
38944;SDS011;24732;49.088;8.286;2022-08-03T00:40:11;4.60;;;4.10;;
38944;SDS011;24732;49.088;8.286;2022-08-03T00:42:58;4.43;;;4.03;;
38944;SDS011;24732;49.088;8.286;2022-08-03T00:45:45;4.10;;;3.80;;
38944;SDS011;24732;49.088;8.286;2022-08-03T00:48:31;4.53;;;4.13;;
38944;SDS011;24732;49.088;8.286;2022-08-03T00:51:18;4.40;;;4.00;;
38944;SDS011;24732;49.088;8.286;2022-08-03T00:54:05;4.30;;;3.90;;
38944;SDS011;24732;49.088;8.286;2022-08-03T00:56:51;3.95;;;3.65;;
38944;SDS011;24732;49.088;8.286;2022-08-03T00:59:38;4.38;;;3.83;;
38944;SDS011;24732;49.088;8.286;2022-08-03T01:02:24;4.60;;;3.85;;
38944;SDS011;24732;49.088;8.286;2022-08-03T01:05:11;4.13;;;3.75;;
38944;SDS011;24732;49.088;8.286;2022-08-03T01:08:02;4.00;;;3.70;;
38944;SDS011;24732;49.088;8.286;2022-08-03T01:11:11;4.15;;;3.80;;
38944;SDS011;24732;49.088;8.286;2022-08-03T01:31:28;4.20;;;3.70;;
38944;SDS011;24732;49.088;8.286;2022-08-03T01:34:17;4.40;;;4.00;;
38944;SDS011;24732;49.088;8.286;2022-08-03T01:37:05;4.47;;;4.05;;
38944;SDS011;24732;49.088;8.286;2022-08-03T01:39:54;4.38;;;4.03;;
38944;SDS011;24732;49.088;8.286;2022-08-03T01:42:41;4.30;;;4.00;;
38944;SDS011;24732;49.088;8.286;2022-08-03T01:45:28;4.50;;;4.10;;
38944;SDS011;24732;49.088;8.286;2022-08-03T01:48:15;4.15;;;3.85;;
38944;SDS011;24732;49.088;8.286;2022-08-03T01:51:02;4.40;;;4.10;;
38944;SDS011;24732;49.088;8.286;2022-08-03T01:53:49;4.53;;;4.22;;
38944;SDS011;24732;49.088;8.286;2022-08-03T01:56:39;4.35;;;3.97;;
38944;SDS011;24732;49.088;8.286;2022-08-03T01:59:26;4.03;;;3.72;;
38944;SDS011;24732;49.088;8.286;2022-08-03T02:02:13;4.50;;;4.10;;
38944;SDS011;24732;49.088;8.286;2022-08-03T02:05:02;4.10;;;3.80;;
38944;SDS011;24732;49.088;8.286;2022-08-03T02:07:49;4.80;;;4.40;;
38944;SDS011;24732;49.088;8.286;2022-08-03T02:10:36;4.47;;;4.07;;
38944;SDS011;24732;49.088;8.286;2022-08-03T02:13:23;4.43;;;4.13;;
38944;SDS011;24732;49.088;8.286;2022-08-03T02:16:09;4.80;;;4.13;;
38944;SDS011;24732;49.088;8.286;2022-08-03T02:18:56;4.78;;;4.28;;
38944;SDS011;24732;49.088;8.286;2022-08-03T02:21:44;4.10;;;3.80;;
38944;SDS011;24732;49.088;8.286;2022-08-03T02:24:31;4.32;;;3.92;;
38944;SDS011;24732;49.088;8.286;2022-08-03T02:27:26;4.40;;;4.10;;
38944;SDS011;24732;49.088;8.286;2022-08-03T02:30:14;4.50;;;4.10;;
38944;SDS011;24732;49.088;8.286;2022-08-03T02:33:00;4.30;;;3.92;;
38944;SDS011;24732;49.088;8.286;2022-08-03T02:35:47;4.90;;;4.00;;
38944;SDS011;24732;49.088;8.286;2022-08-03T02:38:35;4.40;;;4.00;;
38944;SDS011;24732;49.088;8.286;2022-08-03T02:41:23;4.15;;;3.75;;
38944;SDS011;24732;49.088;8.286;2022-08-03T02:44:10;4.30;;;3.92;;
38944;SDS011;24732;49.088;8.286;2022-08-03T02:47:04;4.50;;;3.70;;
38944;SDS011;24732;49.088;8.286;2022-08-03T02:49:51;4.32;;;3.92;;
38944;SDS011;24732;49.088;8.286;2022-08-03T02:52:39;4.40;;;4.00;;
38944;SDS011;24732;49.088;8.286;2022-08-03T02:55:26;4.20;;;3.80;;
38944;SDS011;24732;49.088;8.286;2022-08-03T02:58:14;4.95;;;4.45;;
38944;SDS011;24732;49.088;8.286;2022-08-03T03:01:02;4.40;;;3.83;;
38944;SDS011;24732;49.088;8.286;2022-08-03T03:03:49;4.30;;;3.90;;
38944;SDS011;24732;49.088;8.286;2022-08-03T03:06:36;4.75;;;3.88;;
38944;SDS011;24732;49.088;8.286;2022-08-03T03:09:23;4.43;;;4.03;;
38944;SDS011;24732;49.088;8.286;2022-08-03T03:12:10;4.68;;;4.28;;
38944;SDS011;24732;49.088;8.286;2022-08-03T03:14:57;4.32;;;3.80;;
38944;SDS011;24732;49.088;8.286;2022-08-03T03:17:43;4.40;;;4.03;;
38944;SDS011;24732;49.088;8.286;2022-08-03T03:20:30;4.15;;;3.85;;
38944;SDS011;24732;49.088;8.286;2022-08-03T03:23:19;4.35;;;3.97;;
38944;SDS011;24732;49.088;8.286;2022-08-03T03:26:06;4.15;;;3.80;;
38944;SDS011;24732;49.088;8.286;2022-08-03T03:28:53;4.32;;;3.90;;
38944;SDS011;24732;49.088;8.286;2022-08-03T03:31:40;5.03;;;3.90;;
38944;SDS011;24732;49.088;8.286;2022-08-03T03:34:27;4.47;;;4.07;;
38944;SDS011;24732;49.088;8.286;2022-08-03T03:37:14;4.30;;;3.90;;
38944;SDS011;24732;49.088;8.286;2022-08-03T03:40:01;4.05;;;3.75;;
38944;SDS011;24732;49.088;8.286;2022-08-03T03:42:48;4.40;;;4.00;;
38944;SDS011;24732;49.088;8.286;2022-08-03T03:45:35;4.18;;;3.80;;
38944;SDS011;24732;49.088;8.286;2022-08-03T03:48:21;4.30;;;3.95;;
38944;SDS011;24732;49.088;8.286;2022-08-03T03:51:09;4.10;;;3.80;;
38944;SDS011;24732;49.088;8.286;2022-08-03T03:53:56;4.57;;;4.03;;
38944;SDS011;24732;49.088;8.286;2022-08-03T03:56:42;5.05;;;3.72;;
38944;SDS011;24732;49.088;8.286;2022-08-03T03:59:29;4.88;;;3.70;;
38944;SDS011;24732;49.088;8.286;2022-08-03T04:02:15;4.60;;;4.10;;
38944;SDS011;24732;49.088;8.286;2022-08-03T04:05:02;3.95;;;3.42;;
38944;SDS011;24732;49.088;8.286;2022-08-03T04:08:08;4.20;;;3.80;;
38944;SDS011;24732;49.088;8.286;2022-08-03T04:14:07;4.10;;;3.70;;
38944;SDS011;24732;49.088;8.286;2022-08-03T04:16:58;4.22;;;3.78;;
38944;SDS011;24732;49.088;8.286;2022-08-03T04:19:50;3.80;;;3.50;;
38944;SDS011;24732;49.088;8.286;2022-08-03T04:22:37;5.40;;;4.30;;
38944;SDS011;24732;49.088;8.286;2022-08-03T04:25:25;4.00;;;3.50;;
38944;SDS011;24732;49.088;8.286;2022-08-03T04:28:13;4.20;;;3.80;;
38944;SDS011;24732;49.088;8.286;2022-08-03T04:31:00;4.28;;;3.88;;
38944;SDS011;24732;49.088;8.286;2022-08-03T04:33:49;4.60;;;3.83;;
38944;SDS011;24732;49.088;8.286;2022-08-03T04:36:37;5.18;;;3.78;;
38944;SDS011;24732;49.088;8.286;2022-08-03T04:39:28;5.90;;;3.88;;
38944;SDS011;24732;49.088;8.286;2022-08-03T04:42:16;5.15;;;3.80;;
38944;SDS011;24732;49.088;8.286;2022-08-03T04:45:05;4.32;;;3.80;;
38944;SDS011;24732;49.088;8.286;2022-08-03T04:47:53;4.00;;;3.60;;
38944;SDS011;24732;49.088;8.286;2022-08-03T04:50:40;3.80;;;3.42;;
38944;SDS011;24732;49.088;8.286;2022-08-03T04:53:27;4.10;;;3.70;;
38944;SDS011;24732;49.088;8.286;2022-08-03T04:56:13;4.72;;;3.60;;
38944;SDS011;24732;49.088;8.286;2022-08-03T04:59:00;4.22;;;3.83;;
38944;SDS011;24732;49.088;8.286;2022-08-03T05:01:46;4.95;;;3.67;;
38944;SDS011;24732;49.088;8.286;2022-08-03T05:04:32;3.90;;;3.50;;
38944;SDS011;24732;49.088;8.286;2022-08-03T05:07:19;3.97;;;3.60;;
38944;SDS011;24732;49.088;8.286;2022-08-03T05:10:06;4.72;;;3.60;;
38944;SDS011;24732;49.088;8.286;2022-08-03T05:12:53;3.80;;;3.50;;
38944;SDS011;24732;49.088;8.286;2022-08-03T05:15:39;4.05;;;3.45;;
38944;SDS011;24732;49.088;8.286;2022-08-03T05:18:26;3.90;;;3.50;;
38944;SDS011;24732;49.088;8.286;2022-08-03T05:21:12;4.72;;;3.60;;
38944;SDS011;24732;49.088;8.286;2022-08-03T05:23:58;3.63;;;3.23;;
38944;SDS011;24732;49.088;8.286;2022-08-03T05:26:45;3.75;;;3.40;;
38944;SDS011;24732;49.088;8.286;2022-08-03T05:29:31;4.00;;;3.60;;
38944;SDS011;24732;49.088;8.286;2022-08-03T05:32:17;3.67;;;3.38;;
38944;SDS011;24732;49.088;8.286;2022-08-03T05:35:04;3.70;;;3.40;;
38944;SDS011;24732;49.088;8.286;2022-08-03T05:37:50;3.63;;;3.23;;
38944;SDS011;24732;49.088;8.286;2022-08-03T05:40:37;5.20;;;3.63;;
38944;SDS011;24732;49.088;8.286;2022-08-03T05:43:23;3.72;;;3.42;;
38944;SDS011;24732;49.088;8.286;2022-08-03T05:46:09;3.40;;;3.10;;
38944;SDS011;24732;49.088;8.286;2022-08-03T05:48:56;4.30;;;3.40;;
38944;SDS011;24732;49.088;8.286;2022-08-03T05:51:42;4.22;;;3.58;;
38944;SDS011;24732;49.088;8.286;2022-08-03T05:54:28;4.07;;;3.30;;
38944;SDS011;24732;49.088;8.286;2022-08-03T05:57:15;3.80;;;3.50;;
38944;SDS011;24732;49.088;8.286;2022-08-03T06:00:08;3.50;;;3.20;;
38944;SDS011;24732;49.088;8.286;2022-08-03T06:02:55;3.70;;;3.20;;
38944;SDS011;24732;49.088;8.286;2022-08-03T06:05:41;3.55;;;3.25;;
38944;SDS011;24732;49.088;8.286;2022-08-03T06:08:27;4.07;;;3.05;;
38944;SDS011;24732;49.088;8.286;2022-08-03T06:11:14;3.78;;;3.22;;
38944;SDS011;24732;49.088;8.286;2022-08-03T06:14:01;4.07;;;3.30;;
38944;SDS011;24732;49.088;8.286;2022-08-03T06:16:47;3.42;;;3.13;;
38944;SDS011;24732;49.088;8.286;2022-08-03T06:19:33;4.10;;;3.10;;
38944;SDS011;24732;49.088;8.286;2022-08-03T06:22:20;3.97;;;3.20;;
38944;SDS011;24732;49.088;8.286;2022-08-03T06:25:06;3.70;;;3.20;;
38944;SDS011;24732;49.088;8.286;2022-08-03T06:27:52;11.95;;;8.32;;
38944;SDS011;24732;49.088;8.286;2022-08-03T06:30:39;7.43;;;5.77;;
38944;SDS011;24732;49.088;8.286;2022-08-03T06:33:26;5.55;;;3.40;;
38944;SDS011;24732;49.088;8.286;2022-08-03T06:36:12;5.43;;;3.20;;
38944;SDS011;24732;49.088;8.286;2022-08-03T06:38:59;3.80;;;3.20;;
38944;SDS011;24732;49.088;8.286;2022-08-03T06:41:45;3.50;;;3.20;;
38944;SDS011;24732;49.088;8.286;2022-08-03T06:44:31;3.65;;;3.35;;
38944;SDS011;24732;49.088;8.286;2022-08-03T06:47:18;4.13;;;3.25;;
38944;SDS011;24732;49.088;8.286;2022-08-03T06:50:05;3.40;;;3.10;;
38944;SDS011;24732;49.088;8.286;2022-08-03T06:52:52;5.10;;;3.22;;
38944;SDS011;24732;49.088;8.286;2022-08-03T06:55:38;3.30;;;3.00;;
38944;SDS011;24732;49.088;8.286;2022-08-03T06:58:24;3.45;;;3.00;;
38944;SDS011;24732;49.088;8.286;2022-08-03T07:01:11;3.33;;;3.03;;
38944;SDS011;24732;49.088;8.286;2022-08-03T07:03:57;4.53;;;3.00;;
38944;SDS011;24732;49.088;8.286;2022-08-03T07:06:44;3.20;;;2.90;;
38944;SDS011;24732;49.088;8.286;2022-08-03T07:09:31;3.17;;;2.85;;
38944;SDS011;24732;49.088;8.286;2022-08-03T07:12:17;4.22;;;2.97;;
38944;SDS011;24732;49.088;8.286;2022-08-03T07:15:03;3.63;;;2.90;;
38944;SDS011;24732;49.088;8.286;2022-08-03T07:17:50;3.10;;;2.80;;
38944;SDS011;24732;49.088;8.286;2022-08-03T07:20:36;3.17;;;2.88;;
38944;SDS011;24732;49.088;8.286;2022-08-03T07:23:23;4.78;;;3.20;;
38944;SDS011;24732;49.088;8.286;2022-08-03T07:26:09;3.35;;;2.97;;
38944;SDS011;24732;49.088;8.286;2022-08-03T07:28:56;3.35;;;3.00;;
38944;SDS011;24732;49.088;8.286;2022-08-03T07:31:42;4.80;;;3.00;;
38944;SDS011;24732;49.088;8.286;2022-08-03T07:34:29;3.80;;;2.90;;
38944;SDS011;24732;49.088;8.286;2022-08-03T07:37:15;4.25;;;3.15;;
38944;SDS011;24732;49.088;8.286;2022-08-03T07:40:03;3.60;;;3.13;;
38944;SDS011;24732;49.088;8.286;2022-08-03T07:42:49;4.30;;;3.10;;
38944;SDS011;24732;49.088;8.286;2022-08-03T07:45:35;3.63;;;3.08;;
38944;SDS011;24732;49.088;8.286;2022-08-03T07:48:22;4.05;;;3.40;;
38944;SDS011;24732;49.088;8.286;2022-08-03T07:51:08;4.10;;;3.00;;
38944;SDS011;24732;49.088;8.286;2022-08-03T07:53:55;3.70;;;3.15;;
38944;SDS011;24732;49.088;8.286;2022-08-03T07:56:42;4.05;;;3.17;;
38944;SDS011;24732;49.088;8.286;2022-08-03T07:59:28;7.93;;;3.13;;
38944;SDS011;24732;49.088;8.286;2022-08-03T08:02:14;4.28;;;3.03;;
38944;SDS011;24732;49.088;8.286;2022-08-03T08:05:00;3.28;;;2.97;;
38944;SDS011;24732;49.088;8.286;2022-08-03T08:07:47;3.53;;;2.90;;
38944;SDS011;24732;49.088;8.286;2022-08-03T08:10:33;5.10;;;3.20;;
38944;SDS011;24732;49.088;8.286;2022-08-03T08:13:20;3.45;;;2.80;;
38944;SDS011;24732;49.088;8.286;2022-08-03T08:16:06;3.20;;;2.90;;
38944;SDS011;24732;49.088;8.286;2022-08-03T08:18:52;3.65;;;3.00;;
38944;SDS011;24732;49.088;8.286;2022-08-03T08:21:39;4.20;;;3.33;;
38944;SDS011;24732;49.088;8.286;2022-08-03T08:24:25;3.75;;;2.95;;
38944;SDS011;24732;49.088;8.286;2022-08-03T08:27:14;3.60;;;3.15;;
38944;SDS011;24732;49.088;8.286;2022-08-03T08:30:03;5.35;;;3.20;;
38944;SDS011;24732;49.088;8.286;2022-08-03T08:32:49;5.05;;;3.22;;
38944;SDS011;24732;49.088;8.286;2022-08-03T08:35:36;3.70;;;3.28;;
38944;SDS011;24732;49.088;8.286;2022-08-03T08:38:22;5.70;;;3.17;;
38944;SDS011;24732;49.088;8.286;2022-08-03T08:41:09;3.97;;;3.30;;
38944;SDS011;24732;49.088;8.286;2022-08-03T08:43:56;3.70;;;3.40;;
38944;SDS011;24732;49.088;8.286;2022-08-03T08:46:43;3.78;;;3.17;;
38944;SDS011;24732;49.088;8.286;2022-08-03T08:49:29;3.47;;;3.17;;
38944;SDS011;24732;49.088;8.286;2022-08-03T08:52:18;4.50;;;3.67;;
38944;SDS011;24732;49.088;8.286;2022-08-03T08:55:09;5.00;;;3.80;;
38944;SDS011;24732;49.088;8.286;2022-08-03T08:57:57;4.47;;;3.07;;
38944;SDS011;24732;49.088;8.286;2022-08-03T09:00:44;3.78;;;3.00;;
38944;SDS011;24732;49.088;8.286;2022-08-03T09:03:31;4.45;;;3.28;;
38944;SDS011;24732;49.088;8.286;2022-08-03T09:06:19;4.10;;;3.40;;
38944;SDS011;24732;49.088;8.286;2022-08-03T09:09:05;3.65;;;3.25;;
38944;SDS011;24732;49.088;8.286;2022-08-03T09:11:52;4.20;;;3.25;;
38944;SDS011;24732;49.088;8.286;2022-08-03T09:14:39;3.77;;;3.20;;
38944;SDS011;24732;49.088;8.286;2022-08-03T09:17:37;3.38;;;3.08;;
38944;SDS011;24732;49.088;8.286;2022-08-03T09:20:25;3.45;;;3.15;;
38944;SDS011;24732;49.088;8.286;2022-08-03T09:23:11;5.10;;;3.40;;
38944;SDS011;24732;49.088;8.286;2022-08-03T09:25:58;3.95;;;3.10;;
38944;SDS011;24732;49.088;8.286;2022-08-03T09:28:45;4.30;;;3.20;;
38944;SDS011;24732;49.088;8.286;2022-08-03T09:34:22;4.15;;;3.50;;
38944;SDS011;24732;49.088;8.286;2022-08-03T09:37:12;3.77;;;3.10;;
38944;SDS011;24732;49.088;8.286;2022-08-03T09:39:59;3.17;;;2.88;;
38944;SDS011;24732;49.088;8.286;2022-08-03T09:42:55;3.95;;;3.58;;
38944;SDS011;24732;49.088;8.286;2022-08-03T09:45:42;3.63;;;3.33;;
38944;SDS011;24732;49.088;8.286;2022-08-03T09:48:29;3.60;;;3.30;;
38944;SDS011;24732;49.088;8.286;2022-08-03T09:51:15;3.58;;;3.10;;
38944;SDS011;24732;49.088;8.286;2022-08-03T09:54:04;3.67;;;3.28;;
38944;SDS011;24732;49.088;8.286;2022-08-03T09:56:50;3.92;;;3.42;;
38944;SDS011;24732;49.088;8.286;2022-08-03T09:59:37;3.53;;;3.22;;
38944;SDS011;24732;49.088;8.286;2022-08-03T10:02:26;4.10;;;3.70;;
38944;SDS011;24732;49.088;8.286;2022-08-03T10:05:12;4.07;;;3.60;;
38944;SDS011;24732;49.088;8.286;2022-08-03T10:07:59;4.03;;;3.60;;
38944;SDS011;24732;49.088;8.286;2022-08-03T10:10:46;4.57;;;3.47;;
38944;SDS011;24732;49.088;8.286;2022-08-03T10:13:33;4.60;;;3.13;;
38944;SDS011;24732;49.088;8.286;2022-08-03T10:16:19;3.70;;;3.40;;
38944;SDS011;24732;49.088;8.286;2022-08-03T10:19:06;3.83;;;3.40;;
38944;SDS011;24732;49.088;8.286;2022-08-03T10:21:55;3.58;;;3.28;;
38944;SDS011;24732;49.088;8.286;2022-08-03T10:24:52;3.40;;;3.10;;
38944;SDS011;24732;49.088;8.286;2022-08-03T10:27:41;3.85;;;3.50;;
38944;SDS011;24732;49.088;8.286;2022-08-03T10:30:27;4.43;;;3.53;;
38944;SDS011;24732;49.088;8.286;2022-08-03T10:33:21;4.03;;;3.60;;
38944;SDS011;24732;49.088;8.286;2022-08-03T10:36:09;3.30;;;2.80;;
38944;SDS011;24732;49.088;8.286;2022-08-03T10:38:56;2.60;;;2.40;;
38944;SDS011;24732;49.088;8.286;2022-08-03T10:41:42;3.20;;;2.90;;
38944;SDS011;24732;49.088;8.286;2022-08-03T10:44:31;3.30;;;2.78;;
38944;SDS011;24732;49.088;8.286;2022-08-03T10:47:18;3.35;;;3.05;;
38944;SDS011;24732;49.088;8.286;2022-08-03T10:50:04;2.80;;;2.60;;
38944;SDS011;24732;49.088;8.286;2022-08-03T10:52:55;3.20;;;2.90;;
38944;SDS011;24732;49.088;8.286;2022-08-03T10:55:43;2.97;;;2.67;;
38944;SDS011;24732;49.088;8.286;2022-08-03T10:58:50;3.58;;;2.90;;
38944;SDS011;24732;49.088;8.286;2022-08-03T11:01:48;3.00;;;2.80;;
38944;SDS011;24732;49.088;8.286;2022-08-03T11:04:34;3.50;;;3.20;;
38944;SDS011;24732;49.088;8.286;2022-08-03T11:07:21;3.47;;;3.17;;
38944;SDS011;24732;49.088;8.286;2022-08-03T11:10:08;3.22;;;2.92;;
38944;SDS011;24732;49.088;8.286;2022-08-03T11:13:15;3.28;;;2.97;;
38944;SDS011;24732;49.088;8.286;2022-08-03T11:16:03;3.40;;;2.78;;
38944;SDS011;24732;49.088;8.286;2022-08-03T11:19:04;3.50;;;2.60;;
38944;SDS011;24732;49.088;8.286;2022-08-03T11:21:51;3.10;;;2.80;;
38944;SDS011;24732;49.088;8.286;2022-08-03T11:27:41;3.20;;;2.88;;
38944;SDS011;24732;49.088;8.286;2022-08-03T11:30:27;3.03;;;2.72;;
38944;SDS011;24732;49.088;8.286;2022-08-03T11:33:27;3.22;;;2.80;;
38944;SDS011;24732;49.088;8.286;2022-08-03T11:36:13;2.97;;;2.65;;
38944;SDS011;24732;49.088;8.286;2022-08-03T11:39:13;3.03;;;2.83;;
38944;SDS011;24732;49.088;8.286;2022-08-03T11:42:05;3.20;;;2.90;;
38944;SDS011;24732;49.088;8.286;2022-08-03T11:45:07;3.30;;;3.00;;
38944;SDS011;24732;49.088;8.286;2022-08-03T11:47:54;3.30;;;2.97;;
38944;SDS011;24732;49.088;8.286;2022-08-03T11:50:42;3.70;;;3.10;;
38944;SDS011;24732;49.088;8.286;2022-08-03T11:53:30;3.42;;;3.13;;
38944;SDS011;24732;49.088;8.286;2022-08-03T11:56:16;4.70;;;4.30;;
38944;SDS011;24732;49.088;8.286;2022-08-03T11:59:04;4.13;;;3.83;;
38944;SDS011;24732;49.088;8.286;2022-08-03T12:01:50;6.15;;;3.10;;
38944;SDS011;24732;49.088;8.286;2022-08-03T12:04:56;3.30;;;3.00;;
38944;SDS011;24732;49.088;8.286;2022-08-03T12:07:44;4.60;;;2.92;;
38944;SDS011;24732;49.088;8.286;2022-08-03T12:10:31;3.60;;;3.17;;
38944;SDS011;24732;49.088;8.286;2022-08-03T12:13:18;3.00;;;2.70;;
38944;SDS011;24732;49.088;8.286;2022-08-03T12:16:04;3.45;;;3.15;;
38944;SDS011;24732;49.088;8.286;2022-08-03T12:19:09;3.53;;;3.13;;
38944;SDS011;24732;49.088;8.286;2022-08-03T12:21:55;3.30;;;3.00;;
38944;SDS011;24732;49.088;8.286;2022-08-03T12:24:43;3.20;;;2.90;;
38944;SDS011;24732;49.088;8.286;2022-08-03T12:27:29;3.38;;;2.75;;
38944;SDS011;24732;49.088;8.286;2022-08-03T12:30:16;3.20;;;2.90;;
38944;SDS011;24732;49.088;8.286;2022-08-03T12:33:12;3.10;;;2.83;;
38944;SDS011;24732;49.088;8.286;2022-08-03T12:36:08;3.00;;;2.80;;
38944;SDS011;24732;49.088;8.286;2022-08-03T12:38:56;3.55;;;3.13;;
38944;SDS011;24732;49.088;8.286;2022-08-03T12:41:43;3.05;;;2.75;;
38944;SDS011;24732;49.088;8.286;2022-08-03T12:44:30;3.03;;;2.72;;
38944;SDS011;24732;49.088;8.286;2022-08-03T12:47:16;3.00;;;2.80;;
38944;SDS011;24732;49.088;8.286;2022-08-03T12:50:03;3.50;;;3.10;;
38944;SDS011;24732;49.088;8.286;2022-08-03T12:52:49;3.00;;;2.80;;
38944;SDS011;24732;49.088;8.286;2022-08-03T12:55:36;3.23;;;2.90;;
38944;SDS011;24732;49.088;8.286;2022-08-03T12:58:30;2.92;;;2.67;;
38944;SDS011;24732;49.088;8.286;2022-08-03T13:01:19;3.00;;;2.60;;
38944;SDS011;24732;49.088;8.286;2022-08-03T13:04:08;4.25;;;3.00;;
38944;SDS011;24732;49.088;8.286;2022-08-03T13:06:59;3.23;;;2.93;;
38944;SDS011;24732;49.088;8.286;2022-08-03T13:09:47;2.90;;;2.70;;
38944;SDS011;24732;49.088;8.286;2022-08-03T13:12:44;3.20;;;2.90;;
38944;SDS011;24732;49.088;8.286;2022-08-03T13:15:30;3.05;;;2.55;;
38944;SDS011;24732;49.088;8.286;2022-08-03T13:18:16;3.20;;;2.90;;
38944;SDS011;24732;49.088;8.286;2022-08-03T13:21:03;3.00;;;2.80;;
38944;SDS011;24732;49.088;8.286;2022-08-03T13:23:49;3.37;;;3.10;;
38944;SDS011;24732;49.088;8.286;2022-08-03T13:26:35;3.50;;;3.13;;
38944;SDS011;24732;49.088;8.286;2022-08-03T13:29:22;3.53;;;3.00;;
38944;SDS011;24732;49.088;8.286;2022-08-03T13:32:09;4.57;;;3.10;;
38944;SDS011;24732;49.088;8.286;2022-08-03T13:34:55;3.47;;;3.00;;
38944;SDS011;24732;49.088;8.286;2022-08-03T13:37:41;4.80;;;3.05;;
38944;SDS011;24732;49.088;8.286;2022-08-03T13:40:28;3.85;;;3.00;;
38944;SDS011;24732;49.088;8.286;2022-08-03T13:43:16;4.45;;;3.30;;
38944;SDS011;24732;49.088;8.286;2022-08-03T13:46:02;3.38;;;3.08;;
38944;SDS011;24732;49.088;8.286;2022-08-03T13:48:48;4.68;;;2.80;;
38944;SDS011;24732;49.088;8.286;2022-08-03T13:51:35;3.90;;;3.03;;
38944;SDS011;24732;49.088;8.286;2022-08-03T13:54:21;4.28;;;3.15;;
38944;SDS011;24732;49.088;8.286;2022-08-03T13:57:08;3.55;;;2.85;;
38944;SDS011;24732;49.088;8.286;2022-08-03T13:59:55;3.30;;;2.90;;
38944;SDS011;24732;49.088;8.286;2022-08-03T14:02:42;3.50;;;2.70;;
38944;SDS011;24732;49.088;8.286;2022-08-03T14:05:28;3.13;;;2.83;;
38944;SDS011;24732;49.088;8.286;2022-08-03T14:08:15;3.57;;;2.83;;
38944;SDS011;24732;49.088;8.286;2022-08-03T14:11:02;3.00;;;2.70;;
38944;SDS011;24732;49.088;8.286;2022-08-03T14:13:48;3.78;;;2.88;;
38944;SDS011;24732;49.088;8.286;2022-08-03T14:16:35;3.35;;;3.05;;
38944;SDS011;24732;49.088;8.286;2022-08-03T14:19:21;2.80;;;2.60;;
38944;SDS011;24732;49.088;8.286;2022-08-03T14:22:08;4.82;;;2.92;;
38944;SDS011;24732;49.088;8.286;2022-08-03T14:24:57;3.13;;;2.80;;
38944;SDS011;24732;49.088;8.286;2022-08-03T14:27:44;3.07;;;2.50;;
38944;SDS011;24732;49.088;8.286;2022-08-03T14:30:30;3.50;;;2.70;;
38944;SDS011;24732;49.088;8.286;2022-08-03T14:33:16;2.90;;;2.70;;
38944;SDS011;24732;49.088;8.286;2022-08-03T14:36:03;3.85;;;2.80;;
38944;SDS011;24732;49.088;8.286;2022-08-03T14:38:49;3.17;;;2.90;;
38944;SDS011;24732;49.088;8.286;2022-08-03T14:41:35;5.18;;;4.05;;
38944;SDS011;24732;49.088;8.286;2022-08-03T14:44:22;3.72;;;3.33;;
38944;SDS011;24732;49.088;8.286;2022-08-03T14:47:08;3.58;;;3.00;;
38944;SDS011;24732;49.088;8.286;2022-08-03T14:49:55;3.58;;;3.13;;
38944;SDS011;24732;49.088;8.286;2022-08-03T14:52:41;2.90;;;2.70;;
38944;SDS011;24732;49.088;8.286;2022-08-03T14:55:27;3.58;;;3.28;;
38944;SDS011;24732;49.088;8.286;2022-08-03T14:58:14;5.80;;;3.30;;
38944;SDS011;24732;49.088;8.286;2022-08-03T15:01:00;3.40;;;2.95;;
38944;SDS011;24732;49.088;8.286;2022-08-03T15:03:47;3.20;;;2.90;;
38944;SDS011;24732;49.088;8.286;2022-08-03T15:06:33;3.58;;;3.00;;
38944;SDS011;24732;49.088;8.286;2022-08-03T15:09:19;3.33;;;2.95;;
38944;SDS011;24732;49.088;8.286;2022-08-03T15:12:06;3.90;;;3.50;;
38944;SDS011;24732;49.088;8.286;2022-08-03T15:14:52;4.40;;;3.70;;
38944;SDS011;24732;49.088;8.286;2022-08-03T15:17:39;4.83;;;3.10;;
38944;SDS011;24732;49.088;8.286;2022-08-03T15:20:25;3.83;;;3.20;;
38944;SDS011;24732;49.088;8.286;2022-08-03T15:23:12;3.83;;;3.08;;
38944;SDS011;24732;49.088;8.286;2022-08-03T15:25:59;4.00;;;3.30;;
38944;SDS011;24732;49.088;8.286;2022-08-03T15:28:45;3.92;;;3.28;;
38944;SDS011;24732;49.088;8.286;2022-08-03T15:31:31;4.00;;;3.40;;
38944;SDS011;24732;49.088;8.286;2022-08-03T15:34:18;4.55;;;3.50;;
38944;SDS011;24732;49.088;8.286;2022-08-03T15:37:04;4.35;;;3.22;;
38944;SDS011;24732;49.088;8.286;2022-08-03T15:39:51;4.13;;;3.03;;
38944;SDS011;24732;49.088;8.286;2022-08-03T15:42:37;4.15;;;3.47;;
38944;SDS011;24732;49.088;8.286;2022-08-03T15:45:24;3.50;;;3.20;;
38944;SDS011;24732;49.088;8.286;2022-08-03T15:48:10;3.97;;;3.50;;
38944;SDS011;24732;49.088;8.286;2022-08-03T15:50:57;3.83;;;3.50;;
38944;SDS011;24732;49.088;8.286;2022-08-03T15:53:43;5.22;;;3.63;;
38944;SDS011;24732;49.088;8.286;2022-08-03T15:56:29;3.58;;;3.28;;
38944;SDS011;24732;49.088;8.286;2022-08-03T15:59:16;4.18;;;3.00;;
38944;SDS011;24732;49.088;8.286;2022-08-03T16:02:04;3.50;;;3.17;;
38944;SDS011;24732;49.088;8.286;2022-08-03T16:04:50;3.20;;;2.90;;
38944;SDS011;24732;49.088;8.286;2022-08-03T16:07:36;3.58;;;3.10;;
38944;SDS011;24732;49.088;8.286;2022-08-03T16:10:32;3.23;;;2.93;;
38944;SDS011;24732;49.088;8.286;2022-08-03T16:13:19;3.33;;;3.03;;
38944;SDS011;24732;49.088;8.286;2022-08-03T16:16:05;4.07;;;3.70;;
38944;SDS011;24732;49.088;8.286;2022-08-03T16:18:51;3.80;;;3.40;;
38944;SDS011;24732;49.088;8.286;2022-08-03T16:21:37;3.70;;;3.40;;
38944;SDS011;24732;49.088;8.286;2022-08-03T16:24:25;3.42;;;3.13;;
38944;SDS011;24732;49.088;8.286;2022-08-03T16:27:11;3.33;;;3.00;;
38944;SDS011;24732;49.088;8.286;2022-08-03T16:29:58;4.25;;;3.00;;
38944;SDS011;24732;49.088;8.286;2022-08-03T16:32:44;3.97;;;3.10;;
38944;SDS011;24732;49.088;8.286;2022-08-03T16:35:31;3.22;;;3.03;;
38944;SDS011;24732;49.088;8.286;2022-08-03T16:38:18;3.28;;;2.97;;
38944;SDS011;24732;49.088;8.286;2022-08-03T16:41:04;3.95;;;3.10;;
38944;SDS011;24732;49.088;8.286;2022-08-03T16:43:50;4.30;;;3.20;;
38944;SDS011;24732;49.088;8.286;2022-08-03T16:46:37;7.78;;;6.88;;
38944;SDS011;24732;49.088;8.286;2022-08-03T16:49:27;10.18;;;8.27;;
38944;SDS011;24732;49.088;8.286;2022-08-03T16:52:13;7.70;;;5.40;;
38944;SDS011;24732;49.088;8.286;2022-08-03T16:54:59;4.35;;;3.75;;
38944;SDS011;24732;49.088;8.286;2022-08-03T16:57:46;4.38;;;3.40;;
38944;SDS011;24732;49.088;8.286;2022-08-03T17:00:33;3.80;;;3.10;;
38944;SDS011;24732;49.088;8.286;2022-08-03T17:03:20;4.78;;;3.15;;
38944;SDS011;24732;49.088;8.286;2022-08-03T17:06:07;4.40;;;3.40;;
38944;SDS011;24732;49.088;8.286;2022-08-03T17:08:53;3.40;;;3.10;;
38944;SDS011;24732;49.088;8.286;2022-08-03T17:11:41;3.55;;;3.08;;
38944;SDS011;24732;49.088;8.286;2022-08-03T17:14:27;3.47;;;3.17;;
38944;SDS011;24732;49.088;8.286;2022-08-03T17:17:15;4.18;;;3.30;;